sensor_id;sensor_type;location;lat;lon;timestamp;pressure;altitude;pressure_sealevel;temperature;humidity
37878;BME280;23715;53.652;8.516;2023-04-20T00:04:34;102569.94;;;9.26;100.00
37878;BME280;23715;53.652;8.516;2023-04-20T00:09:35;102566.18;;;9.71;100.00
37878;BME280;23715;53.652;8.516;2023-04-20T00:14:35;102548.16;;;9.73;100.00
37878;BME280;23715;53.652;8.516;2023-04-20T00:19:35;102531.39;;;9.61;100.00
37878;BME280;23715;53.652;8.516;2023-04-20T00:24:36;102529.70;;;9.67;100.00
37878;BME280;23715;53.652;8.516;2023-04-20T00:29:35;102523.34;;;9.76;100.00
37878;BME280;23715;53.652;8.516;2023-04-20T00:34:36;102515.31;;;10.00;100.00
37878;BME280;23715;53.652;8.516;2023-04-20T00:39:36;102512.47;;;10.03;100.00
37878;BME280;23715;53.652;8.516;2023-04-20T00:44:36;102502.77;;;10.00;100.00
37878;BME280;23715;53.652;8.516;2023-04-20T00:49:37;102500.16;;;9.99;100.00
37878;BME280;23715;53.652;8.516;2023-04-20T00:54:37;102489.50;;;10.20;100.00
37878;BME280;23715;53.652;8.516;2023-04-20T00:59:39;102477.67;;;10.31;100.00
37878;BME280;23715;53.652;8.516;2023-04-20T01:04:43;102470.13;;;10.38;100.00
37878;BME280;23715;53.652;8.516;2023-04-20T01:09:44;102445.81;;;10.32;100.00
37878;BME280;23715;53.652;8.516;2023-04-20T01:14:45;102439.66;;;10.30;100.00
37878;BME280;23715;53.652;8.516;2023-04-20T01:19:45;102437.34;;;10.31;100.00
37878;BME280;23715;53.652;8.516;2023-04-20T01:24:47;102425.95;;;10.42;100.00
37878;BME280;23715;53.652;8.516;2023-04-20T01:29:47;102428.36;;;10.40;100.00
37878;BME280;23715;53.652;8.516;2023-04-20T01:34:47;102419.89;;;10.39;100.00
37878;BME280;23715;53.652;8.516;2023-04-20T01:39:47;102421.72;;;10.38;100.00
37878;BME280;23715;53.652;8.516;2023-04-20T01:44:48;102415.77;;;10.24;100.00
37878;BME280;23715;53.652;8.516;2023-04-20T01:49:48;102404.06;;;10.25;100.00
37878;BME280;23715;53.652;8.516;2023-04-20T01:54:49;102402.33;;;10.17;100.00
37878;BME280;23715;53.652;8.516;2023-04-20T01:59:50;102404.38;;;10.05;100.00
37878;BME280;23715;53.652;8.516;2023-04-20T02:04:49;102389.23;;;10.04;100.00
37878;BME280;23715;53.652;8.516;2023-04-20T02:09:51;102394.73;;;9.93;100.00
37878;BME280;23715;53.652;8.516;2023-04-20T02:14:51;102394.73;;;9.93;100.00
37878;BME280;23715;53.652;8.516;2023-04-20T02:19:52;102393.72;;;9.80;100.00
37878;BME280;23715;53.652;8.516;2023-04-20T02:24:53;102393.47;;;9.69;100.00
37878;BME280;23715;53.652;8.516;2023-04-20T02:29:52;102384.89;;;9.78;100.00
37878;BME280;23715;53.652;8.516;2023-04-20T02:34:53;102381.70;;;9.71;100.00
37878;BME280;23715;53.652;8.516;2023-04-20T02:39:53;102383.22;;;9.68;100.00
37878;BME280;23715;53.652;8.516;2023-04-20T02:44:53;102385.98;;;9.67;100.00
37878;BME280;23715;53.652;8.516;2023-04-20T02:49:54;102384.84;;;9.71;100.00
37878;BME280;23715;53.652;8.516;2023-04-20T02:54:54;102390.33;;;9.53;100.00
37878;BME280;23715;53.652;8.516;2023-04-20T02:59:54;102385.00;;;9.61;100.00
37878;BME280;23715;53.652;8.516;2023-04-20T03:04:56;102376.78;;;9.71;100.00
37878;BME280;23715;53.652;8.516;2023-04-20T03:09:57;102375.55;;;9.53;100.00
37878;BME280;23715;53.652;8.516;2023-04-20T03:15:03;102371.20;;;9.67;100.00
37878;BME280;23715;53.652;8.516;2023-04-20T03:20:19;102374.42;;;9.73;100.00
37878;BME280;23715;53.652;8.516;2023-04-20T03:25:19;102371.20;;;9.67;100.00
37878;BME280;23715;53.652;8.516;2023-04-20T03:30:24;102351.27;;;9.71;100.00
37878;BME280;23715;53.652;8.516;2023-04-20T03:35:26;102328.63;;;9.68;100.00
37878;BME280;23715;53.652;8.516;2023-04-20T03:40:27;102329.48;;;9.45;100.00
37878;BME280;23715;53.652;8.516;2023-04-20T03:45:28;102331.08;;;9.56;100.00
37878;BME280;23715;53.652;8.516;2023-04-20T03:50:28;102323.47;;;9.56;100.00
37878;BME280;23715;53.652;8.516;2023-04-20T03:55:28;102317.64;;;9.56;100.00
37878;BME280;23715;53.652;8.516;2023-04-20T04:00:29;102321.67;;;9.56;100.00
37878;BME280;23715;53.652;8.516;2023-04-20T04:05:31;102322.13;;;9.49;100.00
37878;BME280;23715;53.652;8.516;2023-04-20T04:10:32;102325.37;;;9.47;100.00
37878;BME280;23715;53.652;8.516;2023-04-20T04:15:32;102329.29;;;9.48;100.00
37878;BME280;23715;53.652;8.516;2023-04-20T04:20:35;102332.95;;;9.47;100.00
37878;BME280;23715;53.652;8.516;2023-04-20T04:25:37;102331.77;;;9.44;100.00
37878;BME280;23715;53.652;8.516;2023-04-20T04:30:39;102332.25;;;9.44;100.00
37878;BME280;23715;53.652;8.516;2023-04-20T04:35:40;102323.13;;;9.39;100.00
37878;BME280;23715;53.652;8.516;2023-04-20T04:40:42;102322.56;;;9.41;100.00
37878;BME280;23715;53.652;8.516;2023-04-20T04:45:44;102326.76;;;9.38;100.00
37878;BME280;23715;53.652;8.516;2023-04-20T04:50:45;102328.80;;;9.42;100.00
37878;BME280;23715;53.652;8.516;2023-04-20T04:55:45;102325.45;;;9.29;100.00
37878;BME280;23715;53.652;8.516;2023-04-20T05:00:45;102325.25;;;9.41;100.00
37878;BME280;23715;53.652;8.516;2023-04-20T05:05:45;102329.41;;;9.47;100.00
37878;BME280;23715;53.652;8.516;2023-04-20T05:10:45;102333.02;;;9.46;100.00
37878;BME280;23715;53.652;8.516;2023-04-20T05:15:46;102333.26;;;9.34;100.00
37878;BME280;23715;53.652;8.516;2023-04-20T05:20:46;102333.86;;;9.23;100.00
37878;BME280;23715;53.652;8.516;2023-04-20T05:25:46;102331.25;;;9.22;100.00
37878;BME280;23715;53.652;8.516;2023-04-20T05:30:47;102334.23;;;9.08;100.00
37878;BME280;23715;53.652;8.516;2023-04-20T05:35:46;102329.91;;;9.22;100.00
37878;BME280;23715;53.652;8.516;2023-04-20T05:40:47;102342.96;;;9.21;100.00
37878;BME280;23715;53.652;8.516;2023-04-20T05:45:48;102344.97;;;8.92;100.00
37878;BME280;23715;53.652;8.516;2023-04-20T05:50:48;102348.56;;;8.84;100.00
37878;BME280;23715;53.652;8.516;2023-04-20T05:55:48;102353.44;;;8.85;100.00
37878;BME280;23715;53.652;8.516;2023-04-20T06:00:48;102358.87;;;8.92;100.00
37878;BME280;23715;53.652;8.516;2023-04-20T06:05:49;102364.36;;;9.22;100.00
37878;BME280;23715;53.652;8.516;2023-04-20T06:10:54;102364.56;;;9.26;100.00
37878;BME280;23715;53.652;8.516;2023-04-20T06:15:55;102359.44;;;9.22;100.00
37878;BME280;23715;53.652;8.516;2023-04-20T06:20:55;102367.97;;;9.05;100.00
37878;BME280;23715;53.652;8.516;2023-04-20T06:25:55;102356.59;;;9.25;100.00
37878;BME280;23715;53.652;8.516;2023-04-20T06:30:55;102353.78;;;9.03;100.00
37878;BME280;23715;53.652;8.516;2023-04-20T06:35:56;102350.55;;;9.12;100.00
37878;BME280;23715;53.652;8.516;2023-04-20T06:40:57;102349.05;;;9.15;100.00
37878;BME280;23715;53.652;8.516;2023-04-20T06:46:01;102365.08;;;9.01;100.00
37878;BME280;23715;53.652;8.516;2023-04-20T06:51:05;102362.75;;;8.86;100.00
37878;BME280;23715;53.652;8.516;2023-04-20T06:56:05;102362.64;;;8.88;100.00
37878;BME280;23715;53.652;8.516;2023-04-20T07:01:06;102377.95;;;8.94;100.00
37878;BME280;23715;53.652;8.516;2023-04-20T07:06:11;102374.69;;;9.05;100.00
37878;BME280;23715;53.652;8.516;2023-04-20T07:11:11;102368.67;;;9.25;100.00
37878;BME280;23715;53.652;8.516;2023-04-20T07:21:21;102367.76;;;9.01;100.00
37878;BME280;23715;53.652;8.516;2023-04-20T07:26:23;102365.25;;;8.89;100.00
37878;BME280;23715;53.652;8.516;2023-04-20T07:31:23;102373.16;;;8.84;100.00
37878;BME280;23715;53.652;8.516;2023-04-20T07:36:23;102372.65;;;9.17;100.00
37878;BME280;23715;53.652;8.516;2023-04-20T07:41:24;102390.03;;;9.10;100.00
37878;BME280;23715;53.652;8.516;2023-04-20T07:46:25;102387.33;;;9.19;100.00
37878;BME280;23715;53.652;8.516;2023-04-20T07:51:26;102387.54;;;9.07;100.00
37878;BME280;23715;53.652;8.516;2023-04-20T07:56:29;102387.89;;;9.33;100.00
37878;BME280;23715;53.652;8.516;2023-04-20T08:01:30;102396.52;;;9.31;100.00
37878;BME280;23715;53.652;8.516;2023-04-20T08:06:30;102389.34;;;9.47;100.00
37878;BME280;23715;53.652;8.516;2023-04-20T08:11:30;102383.87;;;9.33;100.00
37878;BME280;23715;53.652;8.516;2023-04-20T08:16:31;102393.83;;;9.15;100.00
37878;BME280;23715;53.652;8.516;2023-04-20T08:21:31;102406.33;;;9.07;100.00
37878;BME280;23715;53.652;8.516;2023-04-20T08:26:32;102410.84;;;8.98;100.00
37878;BME280;23715;53.652;8.516;2023-04-20T08:31:32;102416.64;;;9.15;100.00
37878;BME280;23715;53.652;8.516;2023-04-20T08:36:33;102412.33;;;9.28;100.00
37878;BME280;23715;53.652;8.516;2023-04-20T08:41:33;102408.44;;;9.34;100.00
37878;BME280;23715;53.652;8.516;2023-04-20T08:46:34;102414.52;;;9.13;100.00
37878;BME280;23715;53.652;8.516;2023-04-20T08:51:34;102421.86;;;9.34;100.00
37878;BME280;23715;53.652;8.516;2023-04-20T08:56:36;102412.52;;;9.41;100.00
37878;BME280;23715;53.652;8.516;2023-04-20T09:01:37;102425.59;;;9.47;100.00
37878;BME280;23715;53.652;8.516;2023-04-20T09:06:47;102413.28;;;9.59;100.00
37878;BME280;23715;53.652;8.516;2023-04-20T09:12:03;102433.78;;;9.53;100.00
37878;BME280;23715;53.652;8.516;2023-04-20T09:17:06;102442.33;;;9.52;100.00
37878;BME280;23715;53.652;8.516;2023-04-20T09:22:06;102441.14;;;9.49;100.00
37878;BME280;23715;53.652;8.516;2023-04-20T09:27:17;102442.13;;;9.40;100.00
37878;BME280;23715;53.652;8.516;2023-04-20T09:32:22;102446.42;;;9.67;100.00
37878;BME280;23715;53.652;8.516;2023-04-20T09:37:25;102443.07;;;9.38;100.00
37878;BME280;23715;53.652;8.516;2023-04-20T09:42:27;102451.16;;;9.54;100.00
37878;BME280;23715;53.652;8.516;2023-04-20T09:47:28;102432.81;;;9.38;100.00
37878;BME280;23715;53.652;8.516;2023-04-20T09:52:29;102420.74;;;9.13;100.00
37878;BME280;23715;53.652;8.516;2023-04-20T09:57:31;102423.21;;;9.09;100.00
37878;BME280;23715;53.652;8.516;2023-04-20T10:02:31;102457.11;;;9.28;100.00
37878;BME280;23715;53.652;8.516;2023-04-20T10:07:32;102458.40;;;9.36;100.00
37878;BME280;23715;53.652;8.516;2023-04-20T10:12:33;102465.58;;;9.61;100.00
37878;BME280;23715;53.652;8.516;2023-04-20T10:17:35;102460.26;;;9.68;100.00
37878;BME280;23715;53.652;8.516;2023-04-20T10:22:35;102453.31;;;9.80;100.00
37878;BME280;23715;53.652;8.516;2023-04-20T10:27:37;102459.72;;;9.93;100.00
37878;BME280;23715;53.652;8.516;2023-04-20T10:32:37;102460.78;;;10.13;100.00
37878;BME280;23715;53.652;8.516;2023-04-20T10:37:51;102453.50;;;10.00;100.00
37878;BME280;23715;53.652;8.516;2023-04-20T10:42:51;102437.45;;;10.14;100.00
37878;BME280;23715;53.652;8.516;2023-04-20T10:47:53;102406.78;;;9.79;100.00
37878;BME280;23715;53.652;8.516;2023-04-20T10:52:53;102449.02;;;10.00;100.00
37878;BME280;23715;53.652;8.516;2023-04-20T10:57:53;102447.04;;;10.71;100.00
37878;BME280;23715;53.652;8.516;2023-04-20T11:02:55;102441.52;;;10.89;100.00
37878;BME280;23715;53.652;8.516;2023-04-20T11:07:58;102444.88;;;11.07;100.00
37878;BME280;23715;53.652;8.516;2023-04-20T11:13:00;102434.69;;;11.12;100.00
37878;BME280;23715;53.652;8.516;2023-04-20T11:18:07;102445.84;;;10.99;100.00
37878;BME280;23715;53.652;8.516;2023-04-20T11:23:09;102443.23;;;10.97;100.00
37878;BME280;23715;53.652;8.516;2023-04-20T11:28:09;102427.56;;;11.11;100.00
37878;BME280;23715;53.652;8.516;2023-04-20T11:33:09;102424.96;;;11.24;100.00
37878;BME280;23715;53.652;8.516;2023-04-20T11:38:09;102421.50;;;11.22;100.00
37878;BME280;23715;53.652;8.516;2023-04-20T11:43:12;102420.24;;;11.06;100.00
37878;BME280;23715;53.652;8.516;2023-04-20T11:48:11;102414.77;;;11.14;100.00
37878;BME280;23715;53.652;8.516;2023-04-20T11:53:12;102413.52;;;11.20;100.00
37878;BME280;23715;53.652;8.516;2023-04-20T11:58:13;102406.16;;;11.44;100.00
37878;BME280;23715;53.652;8.516;2023-04-20T12:03:13;102410.36;;;11.13;100.00
37878;BME280;23715;53.652;8.516;2023-04-20T12:08:15;102407.95;;;11.23;100.00
37878;BME280;23715;53.652;8.516;2023-04-20T12:13:17;102406.78;;;11.35;100.00
37878;BME280;23715;53.652;8.516;2023-04-20T12:18:17;102402.65;;;11.29;100.00
37878;BME280;23715;53.652;8.516;2023-04-20T12:23:18;102402.06;;;11.31;100.00
37878;BME280;23715;53.652;8.516;2023-04-20T12:28:20;102400.48;;;11.48;100.00
37878;BME280;23715;53.652;8.516;2023-04-20T12:33:20;102394.74;;;11.40;100.00
37878;BME280;23715;53.652;8.516;2023-04-20T12:38:21;102391.64;;;11.53;100.00
37878;BME280;23715;53.652;8.516;2023-04-20T12:43:21;102395.67;;;11.53;100.00
37878;BME280;23715;53.652;8.516;2023-04-20T12:48:21;102387.47;;;11.55;100.00
37878;BME280;23715;53.652;8.516;2023-04-20T12:53:21;102383.55;;;11.53;100.00
37878;BME280;23715;53.652;8.516;2023-04-20T12:58:21;102384.14;;;11.51;100.00
37878;BME280;23715;53.652;8.516;2023-04-20T13:03:22;102387.95;;;11.55;100.00
37878;BME280;23715;53.652;8.516;2023-04-20T13:08:32;102390.22;;;11.68;100.00
37878;BME280;23715;53.652;8.516;2023-04-20T13:13:45;102395.95;;;11.90;100.00
37878;BME280;23715;53.652;8.516;2023-04-20T13:18:46;102403.69;;;12.02;100.00
37878;BME280;23715;53.652;8.516;2023-04-20T13:23:46;102388.16;;;11.86;100.00
37878;BME280;23715;53.652;8.516;2023-04-20T13:28:46;102391.40;;;11.64;100.00
37878;BME280;23715;53.652;8.516;2023-04-20T13:33:46;102387.59;;;11.53;100.00
37878;BME280;23715;53.652;8.516;2023-04-20T13:38:46;102394.25;;;11.75;100.00
37878;BME280;23715;53.652;8.516;2023-04-20T13:43:47;102384.22;;;11.91;100.00
37878;BME280;23715;53.652;8.516;2023-04-20T13:48:47;102374.13;;;12.01;100.00
37878;BME280;23715;53.652;8.516;2023-04-20T13:53:47;102365.94;;;11.89;100.00
37878;BME280;23715;53.652;8.516;2023-04-20T13:58:48;102361.72;;;11.78;100.00
37878;BME280;23715;53.652;8.516;2023-04-20T14:03:48;102353.06;;;11.73;100.00
37878;BME280;23715;53.652;8.516;2023-04-20T14:08:50;102348.83;;;11.76;100.00
37878;BME280;23715;53.652;8.516;2023-04-20T14:13:50;102340.91;;;11.80;100.00
37878;BME280;23715;53.652;8.516;2023-04-20T14:18:50;102351.22;;;11.53;100.00
37878;BME280;23715;53.652;8.516;2023-04-20T14:23:51;102353.73;;;11.77;100.00
37878;BME280;23715;53.652;8.516;2023-04-20T14:28:54;102352.55;;;11.81;100.00
37878;BME280;23715;53.652;8.516;2023-04-20T14:33:54;102348.72;;;12.05;100.00
37878;BME280;23715;53.652;8.516;2023-04-20T14:38:54;102341.38;;;12.07;100.00
37878;BME280;23715;53.652;8.516;2023-04-20T14:43:57;102333.36;;;12.13;100.00
37878;BME280;23715;53.652;8.516;2023-04-20T14:48:59;102334.70;;;11.93;100.00
37878;BME280;23715;53.652;8.516;2023-04-20T14:54:02;102328.53;;;11.98;100.00
37878;BME280;23715;53.652;8.516;2023-04-20T14:59:02;102324.24;;;12.21;100.00
37878;BME280;23715;53.652;8.516;2023-04-20T15:04:03;102319.12;;;12.10;100.00
37878;BME280;23715;53.652;8.516;2023-04-20T15:09:03;102301.44;;;12.45;100.00
37878;BME280;23715;53.652;8.516;2023-04-20T15:14:05;102289.81;;;12.50;100.00
37878;BME280;23715;53.652;8.516;2023-04-20T15:19:05;102288.50;;;12.68;100.00
37878;BME280;23715;53.652;8.516;2023-04-20T15:24:05;102278.96;;;12.57;100.00
37878;BME280;23715;53.652;8.516;2023-04-20T15:29:05;102270.22;;;12.54;100.00
37878;BME280;23715;53.652;8.516;2023-04-20T15:34:06;102266.01;;;12.62;100.00
37878;BME280;23715;53.652;8.516;2023-04-20T15:39:06;102259.11;;;12.58;100.00
37878;BME280;23715;53.652;8.516;2023-04-20T15:44:06;102246.30;;;12.67;100.00
37878;BME280;23715;53.652;8.516;2023-04-20T15:49:06;102246.98;;;12.77;100.00
37878;BME280;23715;53.652;8.516;2023-04-20T15:54:07;102246.42;;;12.84;100.00
37878;BME280;23715;53.652;8.516;2023-04-20T15:59:07;102235.97;;;12.67;100.00
37878;BME280;23715;53.652;8.516;2023-04-20T16:04:08;102226.46;;;12.93;100.00
37878;BME280;23715;53.652;8.516;2023-04-20T16:09:08;102221.91;;;13.12;100.00
37878;BME280;23715;53.652;8.516;2023-04-20T16:14:09;102212.64;;;13.03;100.00
37878;BME280;23715;53.652;8.516;2023-04-20T16:19:09;102212.92;;;13.05;100.00
37878;BME280;23715;53.652;8.516;2023-04-20T16:24:12;102210.76;;;12.92;100.00
37878;BME280;23715;53.652;8.516;2023-04-20T16:29:13;102207.98;;;13.05;100.00
37878;BME280;23715;53.652;8.516;2023-04-20T16:34:13;102200.16;;;13.07;100.00
37878;BME280;23715;53.652;8.516;2023-04-20T16:39:15;102205.17;;;13.06;100.00
37878;BME280;23715;53.652;8.516;2023-04-20T16:44:16;102196.22;;;13.06;100.00
37878;BME280;23715;53.652;8.516;2023-04-20T16:49:17;102193.13;;;13.05;100.00
37878;BME280;23715;53.652;8.516;2023-04-20T16:54:17;102199.84;;;12.99;100.00
37878;BME280;23715;53.652;8.516;2023-04-20T16:59:17;102196.69;;;13.00;100.00
37878;BME280;23715;53.652;8.516;2023-04-20T17:04:20;102183.56;;;13.06;100.00
37878;BME280;23715;53.652;8.516;2023-04-20T17:09:21;102181.74;;;13.13;100.00
37878;BME280;23715;53.652;8.516;2023-04-20T17:14:21;102170.80;;;13.08;100.00
37878;BME280;23715;53.652;8.516;2023-04-20T17:19:21;102169.95;;;13.08;100.00
37878;BME280;23715;53.652;8.516;2023-04-20T17:24:22;102173.76;;;13.05;100.00
37878;BME280;23715;53.652;8.516;2023-04-20T17:29:22;102169.05;;;12.96;100.00
37878;BME280;23715;53.652;8.516;2023-04-20T17:34:22;102168.22;;;13.01;100.00
37878;BME280;23715;53.652;8.516;2023-04-20T17:39:22;102158.87;;;13.00;100.00
37878;BME280;23715;53.652;8.516;2023-04-20T17:44:25;102156.38;;;12.91;100.00
37878;BME280;23715;53.652;8.516;2023-04-20T17:49:25;102157.72;;;12.91;100.00
37878;BME280;23715;53.652;8.516;2023-04-20T17:54:26;102168.10;;;12.80;100.00
37878;BME280;23715;53.652;8.516;2023-04-20T17:59:32;102174.85;;;12.79;100.00
37878;BME280;23715;53.652;8.516;2023-04-20T18:04:58;102174.85;;;12.79;100.00
37878;BME280;23715;53.652;8.516;2023-04-20T18:09:55;102171.91;;;12.82;100.00
37878;BME280;23715;53.652;8.516;2023-04-20T18:15:02;102170.41;;;12.78;100.00
37878;BME280;23715;53.652;8.516;2023-04-20T18:20:18;102170.09;;;12.64;100.00
37878;BME280;23715;53.652;8.516;2023-04-20T18:25:29;102172.90;;;12.62;100.00
37878;BME280;23715;53.652;8.516;2023-04-20T18:30:31;102185.61;;;12.55;100.00
37878;BME280;23715;53.652;8.516;2023-04-20T18:35:49;102182.33;;;12.44;100.00
37878;BME280;23715;53.652;8.516;2023-04-20T18:40:52;102189.03;;;12.38;100.00
37878;BME280;23715;53.652;8.516;2023-04-20T18:51:13;102187.38;;;12.30;100.00
37878;BME280;23715;53.652;8.516;2023-04-20T18:56:25;102187.34;;;12.24;100.00
37878;BME280;23715;53.652;8.516;2023-04-20T19:01:26;102198.06;;;12.32;100.00
37878;BME280;23715;53.652;8.516;2023-04-20T19:06:26;102204.47;;;12.36;100.00
37878;BME280;23715;53.652;8.516;2023-04-20T19:11:29;102207.45;;;12.39;100.00
37878;BME280;23715;53.652;8.516;2023-04-20T19:16:29;102209.14;;;12.53;100.00
37878;BME280;23715;53.652;8.516;2023-04-20T19:21:30;102201.22;;;12.44;100.00
37878;BME280;23715;53.652;8.516;2023-04-20T19:26:50;102209.69;;;12.58;100.00
37878;BME280;23715;53.652;8.516;2023-04-20T19:36:57;102204.95;;;12.48;100.00
37878;BME280;23715;53.652;8.516;2023-04-20T19:41:59;102199.13;;;12.29;100.00
37878;BME280;23715;53.652;8.516;2023-04-20T19:47:20;102200.92;;;12.23;100.00
37878;BME280;23715;53.652;8.516;2023-04-20T19:52:20;102197.38;;;12.22;100.00
37878;BME280;23715;53.652;8.516;2023-04-20T19:57:21;102199.37;;;12.13;100.00
37878;BME280;23715;53.652;8.516;2023-04-20T20:02:22;102205.36;;;12.11;100.00
37878;BME280;23715;53.652;8.516;2023-04-20T20:07:41;102200.46;;;11.98;100.00
37878;BME280;23715;53.652;8.516;2023-04-20T20:12:41;102193.77;;;11.90;100.00
37878;BME280;23715;53.652;8.516;2023-04-20T20:22:44;102196.22;;;11.81;100.00
37878;BME280;23715;53.652;8.516;2023-04-20T20:27:46;102202.75;;;11.84;100.00
37878;BME280;23715;53.652;8.516;2023-04-20T20:32:46;102197.52;;;11.88;100.00
37878;BME280;23715;53.652;8.516;2023-04-20T20:37:46;102192.12;;;11.75;100.00
37878;BME280;23715;53.652;8.516;2023-04-20T20:42:46;102203.23;;;11.70;100.00
37878;BME280;23715;53.652;8.516;2023-04-20T20:48:07;102196.63;;;11.62;100.00
37878;BME280;23715;53.652;8.516;2023-04-20T20:53:07;102193.48;;;11.55;100.00
37878;BME280;23715;53.652;8.516;2023-04-20T20:58:07;102189.05;;;11.41;100.00
37878;BME280;23715;53.652;8.516;2023-04-20T21:03:08;102201.76;;;11.39;100.00
37878;BME280;23715;53.652;8.516;2023-04-20T21:08:08;102195.22;;;11.36;100.00
37878;BME280;23715;53.652;8.516;2023-04-20T21:13:08;102197.75;;;11.32;100.00
37878;BME280;23715;53.652;8.516;2023-04-20T21:18:09;102196.42;;;11.25;100.00
37878;BME280;23715;53.652;8.516;2023-04-20T21:23:09;102192.27;;;11.13;100.00
37878;BME280;23715;53.652;8.516;2023-04-20T21:28:09;102199.00;;;11.13;100.00
37878;BME280;23715;53.652;8.516;2023-04-20T21:33:10;102200.75;;;11.00;100.00
37878;BME280;23715;53.652;8.516;2023-04-20T21:38:10;102204.33;;;11.01;100.00
37878;BME280;23715;53.652;8.516;2023-04-20T21:43:10;102200.63;;;10.89;100.00
37878;BME280;23715;53.652;8.516;2023-04-20T21:48:10;102201.01;;;10.83;100.00
37878;BME280;23715;53.652;8.516;2023-04-20T21:53:10;102201.48;;;10.89;100.00
37878;BME280;23715;53.652;8.516;2023-04-20T21:58:11;102199.66;;;10.83;100.00
37878;BME280;23715;53.652;8.516;2023-04-20T22:03:11;102207.56;;;10.79;100.00
37878;BME280;23715;53.652;8.516;2023-04-20T22:08:11;102200.25;;;10.81;100.00
37878;BME280;23715;53.652;8.516;2023-04-20T22:13:12;102203.53;;;10.71;100.00
37878;BME280;23715;53.652;8.516;2023-04-20T22:18:12;102206.53;;;10.67;100.00
37878;BME280;23715;53.652;8.516;2023-04-20T22:23:14;102213.00;;;10.43;100.00
37878;BME280;23715;53.652;8.516;2023-04-20T22:28:15;102215.90;;;10.32;100.00
37878;BME280;23715;53.652;8.516;2023-04-20T22:33:15;102197.14;;;10.02;100.00
37878;BME280;23715;53.652;8.516;2023-04-20T22:38:15;102197.14;;;10.02;100.00
37878;BME280;23715;53.652;8.516;2023-04-20T22:43:15;102206.17;;;10.23;100.00
37878;BME280;23715;53.652;8.516;2023-04-20T22:48:15;102206.64;;;10.08;100.00
37878;BME280;23715;53.652;8.516;2023-04-20T22:53:16;102205.59;;;9.96;100.00
37878;BME280;23715;53.652;8.516;2023-04-20T22:58:16;102203.37;;;10.10;100.00
37878;BME280;23715;53.652;8.516;2023-04-20T23:03:16;102201.94;;;10.04;100.00
37878;BME280;23715;53.652;8.516;2023-04-20T23:08:16;102202.39;;;9.82;100.00
37878;BME280;23715;53.652;8.516;2023-04-20T23:13:19;102199.70;;;9.82;100.00
37878;BME280;23715;53.652;8.516;2023-04-20T23:18:20;102209.88;;;9.77;100.00
37878;BME280;23715;53.652;8.516;2023-04-20T23:23:19;102200.66;;;9.74;100.00
37878;BME280;23715;53.652;8.516;2023-04-20T23:28:19;102200.09;;;9.83;100.00
37878;BME280;23715;53.652;8.516;2023-04-20T23:33:19;102197.59;;;9.80;100.00
37878;BME280;23715;53.652;8.516;2023-04-20T23:38:20;102192.86;;;9.69;100.00
37878;BME280;23715;53.652;8.516;2023-04-20T23:43:20;102194.05;;;9.80;100.00
37878;BME280;23715;53.652;8.516;2023-04-20T23:48:20;102186.84;;;9.66;100.00
37878;BME280;23715;53.652;8.516;2023-04-20T23:53:21;102182.32;;;9.81;100.00
37878;BME280;23715;53.652;8.516;2023-04-20T23:58:24;102173.24;;;9.90;100.00
